sensor_id;sensor_type;location;lat;lon;timestamp;pressure;altitude;pressure_sealevel;temperature;humidity
14383;BME280;7275;50.328;8.720;2023-12-28T00:00:25;99557.69;;;10.74;51.97
14383;BME280;7275;50.328;8.720;2023-12-28T00:02:54;99555.69;;;10.79;51.85
14383;BME280;7275;50.328;8.720;2023-12-28T00:05:22;99557.44;;;10.80;51.65
14383;BME280;7275;50.328;8.720;2023-12-28T00:07:49;99567.47;;;10.72;51.94
14383;BME280;7275;50.328;8.720;2023-12-28T00:10:24;99560.56;;;10.89;51.60
14383;BME280;7275;50.328;8.720;2023-12-28T00:12:51;99558.56;;;10.74;51.77
14383;BME280;7275;50.328;8.720;2023-12-28T00:15:19;99575.75;;;10.84;51.54
14383;BME280;7275;50.328;8.720;2023-12-28T00:17:47;99561.97;;;10.98;51.39
14383;BME280;7275;50.328;8.720;2023-12-28T00:20:16;99563.63;;;11.00;51.44
14383;BME280;7275;50.328;8.720;2023-12-28T00:22:44;99566.16;;;11.03;51.11
14383;BME280;7275;50.328;8.720;2023-12-28T00:25:11;99575.81;;;11.04;51.25
14383;BME280;7275;50.328;8.720;2023-12-28T00:27:39;99581.81;;;11.08;51.23
14383;BME280;7275;50.328;8.720;2023-12-28T00:30:07;99584.81;;;11.20;51.06
14383;BME280;7275;50.328;8.720;2023-12-28T00:32:35;99584.97;;;11.17;51.15
14383;BME280;7275;50.328;8.720;2023-12-28T00:35:03;99579.22;;;11.28;50.66
14383;BME280;7275;50.328;8.720;2023-12-28T00:37:33;99578.63;;;11.21;51.22
14383;BME280;7275;50.328;8.720;2023-12-28T00:40:00;99577.06;;;11.16;51.33
14383;BME280;7275;50.328;8.720;2023-12-28T00:42:28;99564.84;;;11.13;51.12
14383;BME280;7275;50.328;8.720;2023-12-28T00:44:56;99557.63;;;11.17;50.73
14383;BME280;7275;50.328;8.720;2023-12-28T00:47:23;99563.97;;;11.13;51.28
14383;BME280;7275;50.328;8.720;2023-12-28T00:49:51;99556.16;;;11.10;51.02
14383;BME280;7275;50.328;8.720;2023-12-28T00:52:19;99574.03;;;11.05;51.30
14383;BME280;7275;50.328;8.720;2023-12-28T00:54:48;99555.16;;;10.92;51.84
14383;BME280;7275;50.328;8.720;2023-12-28T00:57:15;99557.63;;;10.97;51.13
14383;BME280;7275;50.328;8.720;2023-12-28T00:59:43;99555.38;;;11.08;50.79
14383;BME280;7275;50.328;8.720;2023-12-28T01:02:11;99568.75;;;11.25;50.65
14383;BME280;7275;50.328;8.720;2023-12-28T01:04:38;99578.06;;;11.13;51.04
14383;BME280;7275;50.328;8.720;2023-12-28T01:07:06;99585.50;;;11.25;50.39
14383;BME280;7275;50.328;8.720;2023-12-28T01:09:33;99583.91;;;11.42;50.40
14383;BME280;7275;50.328;8.720;2023-12-28T01:12:03;99589.53;;;11.34;49.92
14383;BME280;7275;50.328;8.720;2023-12-28T01:14:31;99602.44;;;11.42;49.84
14383;BME280;7275;50.328;8.720;2023-12-28T01:16:59;99594.56;;;11.60;49.62
14383;BME280;7275;50.328;8.720;2023-12-28T01:19:26;99589.28;;;11.60;49.80
14383;BME280;7275;50.328;8.720;2023-12-28T01:21:54;99602.28;;;11.66;49.97
14383;BME280;7275;50.328;8.720;2023-12-28T01:24:21;99617.09;;;11.70;49.53
14383;BME280;7275;50.328;8.720;2023-12-28T01:26:50;99614.28;;;11.75;49.07
14383;BME280;7275;50.328;8.720;2023-12-28T01:29:19;99621.72;;;11.65;49.45
14383;BME280;7275;50.328;8.720;2023-12-28T01:31:47;99618.22;;;11.85;48.92
14383;BME280;7275;50.328;8.720;2023-12-28T01:34:14;99610.16;;;11.88;48.89
14383;BME280;7275;50.328;8.720;2023-12-28T01:36:42;99624.00;;;11.94;48.59
14383;BME280;7275;50.328;8.720;2023-12-28T01:39:10;99636.84;;;12.03;48.44
14383;BME280;7275;50.328;8.720;2023-12-28T01:41:38;99634.25;;;12.02;48.55
14383;BME280;7275;50.328;8.720;2023-12-28T01:44:05;99625.19;;;12.08;48.48
14383;BME280;7275;50.328;8.720;2023-12-28T01:46:34;99649.59;;;12.14;48.40
14383;BME280;7275;50.328;8.720;2023-12-28T01:49:04;99648.69;;;12.15;48.43
14383;BME280;7275;50.328;8.720;2023-12-28T01:51:32;99665.66;;;12.11;47.89
14383;BME280;7275;50.328;8.720;2023-12-28T01:54:00;99669.53;;;12.23;48.18
14383;BME280;7275;50.328;8.720;2023-12-28T01:56:28;99669.22;;;12.30;47.31
14383;BME280;7275;50.328;8.720;2023-12-28T01:58:56;99662.09;;;12.31;47.77
14383;BME280;7275;50.328;8.720;2023-12-28T02:01:24;99654.03;;;12.34;47.63
14383;BME280;7275;50.328;8.720;2023-12-28T02:03:55;99664.50;;;12.37;47.39
14383;BME280;7275;50.328;8.720;2023-12-28T02:06:23;99655.53;;;12.39;47.34
14383;BME280;7275;50.328;8.720;2023-12-28T02:08:51;99661.06;;;12.35;47.35
14383;BME280;7275;50.328;8.720;2023-12-28T02:11:19;99666.59;;;12.29;48.11
14383;BME280;7275;50.328;8.720;2023-12-28T02:13:47;99671.44;;;12.39;47.78
14383;BME280;7275;50.328;8.720;2023-12-28T02:16:17;99679.97;;;12.46;47.78
14383;BME280;7275;50.328;8.720;2023-12-28T02:18:50;99680.28;;;12.20;48.58
14383;BME280;7275;50.328;8.720;2023-12-28T02:21:20;99679.25;;;12.42;48.15
14383;BME280;7275;50.328;8.720;2023-12-28T02:23:48;99683.19;;;12.34;48.23
14383;BME280;7275;50.328;8.720;2023-12-28T02:26:17;99689.28;;;12.36;48.32
14383;BME280;7275;50.328;8.720;2023-12-28T02:28:45;99687.50;;;12.16;48.97
14383;BME280;7275;50.328;8.720;2023-12-28T02:31:19;99687.81;;;12.29;48.71
14383;BME280;7275;50.328;8.720;2023-12-28T02:33:50;99670.03;;;12.31;48.54
14383;BME280;7275;50.328;8.720;2023-12-28T02:36:23;99650.84;;;12.26;48.60
14383;BME280;7275;50.328;8.720;2023-12-28T02:38:52;99666.28;;;12.16;48.85
14383;BME280;7275;50.328;8.720;2023-12-28T02:41:24;99666.84;;;12.24;48.76
14383;BME280;7275;50.328;8.720;2023-12-28T02:43:52;99656.28;;;12.23;48.88
14383;BME280;7275;50.328;8.720;2023-12-28T02:46:20;99641.66;;;12.14;49.03
14383;BME280;7275;50.328;8.720;2023-12-28T02:48:49;99655.50;;;12.21;48.69
14383;BME280;7275;50.328;8.720;2023-12-28T02:51:16;99653.97;;;12.15;49.18
14383;BME280;7275;50.328;8.720;2023-12-28T02:53:44;99667.16;;;12.17;49.15
14383;BME280;7275;50.328;8.720;2023-12-28T02:56:12;99667.09;;;11.98;49.28
14383;BME280;7275;50.328;8.720;2023-12-28T02:58:40;99661.63;;;12.02;49.35
14383;BME280;7275;50.328;8.720;2023-12-28T03:01:08;99655.84;;;12.13;49.20
14383;BME280;7275;50.328;8.720;2023-12-28T03:03:36;99664.78;;;12.11;49.31
14383;BME280;7275;50.328;8.720;2023-12-28T03:06:04;99662.53;;;12.22;48.89
14383;BME280;7275;50.328;8.720;2023-12-28T03:08:31;99660.06;;;12.17;49.02
14383;BME280;7275;50.328;8.720;2023-12-28T03:10:59;99653.03;;;12.16;49.07
14383;BME280;7275;50.328;8.720;2023-12-28T03:13:27;99641.59;;;12.16;49.17
14383;BME280;7275;50.328;8.720;2023-12-28T03:15:55;99633.31;;;12.23;49.11
14383;BME280;7275;50.328;8.720;2023-12-28T03:18:23;99627.06;;;12.06;49.68
14383;BME280;7275;50.328;8.720;2023-12-28T03:20:51;99628.94;;;12.22;49.46
14383;BME280;7275;50.328;8.720;2023-12-28T03:23:18;99632.00;;;12.13;49.52
14383;BME280;7275;50.328;8.720;2023-12-28T03:25:46;99641.63;;;12.34;49.12
14383;BME280;7275;50.328;8.720;2023-12-28T03:28:13;99659.13;;;12.38;49.07
14383;BME280;7275;50.328;8.720;2023-12-28T03:30:41;99656.78;;;12.51;49.10
14383;BME280;7275;50.328;8.720;2023-12-28T03:33:10;99677.13;;;12.50;49.21
14383;BME280;7275;50.328;8.720;2023-12-28T03:35:38;99671.19;;;12.45;49.45
14383;BME280;7275;50.328;8.720;2023-12-28T03:38:06;99661.13;;;12.52;49.50
14383;BME280;7275;50.328;8.720;2023-12-28T03:40:33;99639.00;;;12.53;49.40
14383;BME280;7275;50.328;8.720;2023-12-28T03:43:01;99622.09;;;12.55;49.58
14383;BME280;7275;50.328;8.720;2023-12-28T03:45:28;99638.50;;;12.63;49.77
14383;BME280;7275;50.328;8.720;2023-12-28T03:47:56;99628.91;;;12.61;49.82
14383;BME280;7275;50.328;8.720;2023-12-28T03:50:25;99670.16;;;12.66;49.98
14383;BME280;7275;50.328;8.720;2023-12-28T03:52:53;99654.22;;;12.68;49.95
14383;BME280;7275;50.328;8.720;2023-12-28T03:55:20;99634.78;;;12.67;49.78
14383;BME280;7275;50.328;8.720;2023-12-28T03:57:48;99627.69;;;12.68;50.01
14383;BME280;7275;50.328;8.720;2023-12-28T04:00:17;99632.75;;;12.54;49.77
14383;BME280;7275;50.328;8.720;2023-12-28T04:02:45;99673.78;;;12.65;49.48
14383;BME280;7275;50.328;8.720;2023-12-28T04:05:15;99681.56;;;12.68;49.16
14383;BME280;7275;50.328;8.720;2023-12-28T04:07:43;99685.75;;;12.74;48.90
14383;BME280;7275;50.328;8.720;2023-12-28T04:10:11;99650.19;;;12.78;49.10
14383;BME280;7275;50.328;8.720;2023-12-28T04:12:38;99669.69;;;12.77;48.95
14383;BME280;7275;50.328;8.720;2023-12-28T04:15:06;99672.19;;;12.80;48.85
14383;BME280;7275;50.328;8.720;2023-12-28T04:17:34;99663.53;;;12.76;49.06
14383;BME280;7275;50.328;8.720;2023-12-28T04:20:02;99680.72;;;12.68;49.32
14383;BME280;7275;50.328;8.720;2023-12-28T04:22:29;99667.88;;;12.59;49.86
14383;BME280;7275;50.328;8.720;2023-12-28T04:24:58;99672.41;;;12.75;49.64
14383;BME280;7275;50.328;8.720;2023-12-28T04:27:26;99681.16;;;12.77;49.72
14383;BME280;7275;50.328;8.720;2023-12-28T04:29:53;99690.28;;;12.91;49.33
14383;BME280;7275;50.328;8.720;2023-12-28T04:32:21;99682.09;;;12.95;49.50
14383;BME280;7275;50.328;8.720;2023-12-28T04:34:50;99682.88;;;12.97;49.55
14383;BME280;7275;50.328;8.720;2023-12-28T04:37:19;99688.78;;;13.04;49.66
14383;BME280;7275;50.328;8.720;2023-12-28T04:39:47;99685.91;;;13.08;49.40
14383;BME280;7275;50.328;8.720;2023-12-28T04:42:15;99698.09;;;13.12;49.40
14383;BME280;7275;50.328;8.720;2023-12-28T04:44:43;99697.88;;;13.17;49.54
14383;BME280;7275;50.328;8.720;2023-12-28T04:47:11;99698.44;;;13.23;49.60
14383;BME280;7275;50.328;8.720;2023-12-28T04:49:38;99690.28;;;13.28;49.63
14383;BME280;7275;50.328;8.720;2023-12-28T04:52:06;99682.88;;;13.34;49.57
14383;BME280;7275;50.328;8.720;2023-12-28T04:54:33;99682.88;;;13.34;49.77
14383;BME280;7275;50.328;8.720;2023-12-28T04:57:01;99693.19;;;13.40;49.60
14383;BME280;7275;50.328;8.720;2023-12-28T04:59:30;99686.88;;;13.43;49.66
14383;BME280;7275;50.328;8.720;2023-12-28T05:01:58;99697.63;;;13.40;49.89
14383;BME280;7275;50.328;8.720;2023-12-28T05:04:25;99695.41;;;13.49;49.78
14383;BME280;7275;50.328;8.720;2023-12-28T05:06:53;99698.28;;;13.45;50.01
14383;BME280;7275;50.328;8.720;2023-12-28T05:09:20;99708.81;;;13.46;50.08
14383;BME280;7275;50.328;8.720;2023-12-28T05:11:48;99707.66;;;13.52;49.95
14383;BME280;7275;50.328;8.720;2023-12-28T05:14:15;99710.31;;;13.52;49.95
14383;BME280;7275;50.328;8.720;2023-12-28T05:16:44;99710.25;;;13.53;50.11
14383;BME280;7275;50.328;8.720;2023-12-28T05:19:12;99705.84;;;13.52;50.32
14383;BME280;7275;50.328;8.720;2023-12-28T05:21:39;99709.28;;;13.54;50.31
14383;BME280;7275;50.328;8.720;2023-12-28T05:24:07;99711.03;;;13.55;50.23
14383;BME280;7275;50.328;8.720;2023-12-28T05:26:35;99713.13;;;13.49;50.62
14383;BME280;7275;50.328;8.720;2023-12-28T05:29:02;99724.63;;;13.49;50.54
14383;BME280;7275;50.328;8.720;2023-12-28T05:31:30;99722.97;;;13.47;50.57
14383;BME280;7275;50.328;8.720;2023-12-28T05:33:59;99730.16;;;13.45;50.69
14383;BME280;7275;50.328;8.720;2023-12-28T05:36:27;99733.72;;;13.44;50.67
14383;BME280;7275;50.328;8.720;2023-12-28T05:38:55;99734.81;;;13.40;50.72
14383;BME280;7275;50.328;8.720;2023-12-28T05:41:23;99743.78;;;13.37;50.84
14383;BME280;7275;50.328;8.720;2023-12-28T05:43:50;99737.06;;;13.30;51.10
14383;BME280;7275;50.328;8.720;2023-12-28T05:46:18;99737.28;;;13.26;51.47
14383;BME280;7275;50.328;8.720;2023-12-28T05:48:45;99725.16;;;13.20;51.67
14383;BME280;7275;50.328;8.720;2023-12-28T05:51:15;99729.16;;;13.10;51.90
14383;BME280;7275;50.328;8.720;2023-12-28T05:53:44;99744.84;;;12.96;52.89
14383;BME280;7275;50.328;8.720;2023-12-28T05:56:12;99737.06;;;12.73;53.54
14383;BME280;7275;50.328;8.720;2023-12-28T05:58:39;99739.13;;;12.66;53.84
14383;BME280;7275;50.328;8.720;2023-12-28T06:01:07;99728.19;;;12.74;54.04
14383;BME280;7275;50.328;8.720;2023-12-28T06:03:35;99727.31;;;12.73;53.99
14383;BME280;7275;50.328;8.720;2023-12-28T06:06:03;99731.63;;;12.76;54.17
14383;BME280;7275;50.328;8.720;2023-12-28T06:08:32;99744.06;;;12.55;54.86
14383;BME280;7275;50.328;8.720;2023-12-28T06:10:59;99723.84;;;12.53;54.97
14383;BME280;7275;50.328;8.720;2023-12-28T06:13:27;99715.69;;;12.57;55.22
14383;BME280;7275;50.328;8.720;2023-12-28T06:15:54;99715.03;;;12.52;55.59
14383;BME280;7275;50.328;8.720;2023-12-28T06:18:22;99705.41;;;12.50;55.80
14383;BME280;7275;50.328;8.720;2023-12-28T06:20:50;99721.13;;;12.54;55.81
14383;BME280;7275;50.328;8.720;2023-12-28T06:23:17;99714.69;;;12.60;55.60
14383;BME280;7275;50.328;8.720;2023-12-28T06:25:46;99719.81;;;12.44;56.43
14383;BME280;7275;50.328;8.720;2023-12-28T06:28:14;99713.88;;;12.58;56.04
14383;BME280;7275;50.328;8.720;2023-12-28T06:30:41;99714.44;;;12.84;54.96
14383;BME280;7275;50.328;8.720;2023-12-28T06:33:09;99712.84;;;12.80;55.22
14383;BME280;7275;50.328;8.720;2023-12-28T06:35:37;99711.31;;;12.75;55.78
14383;BME280;7275;50.328;8.720;2023-12-28T06:38:04;99714.72;;;12.97;55.01
14383;BME280;7275;50.328;8.720;2023-12-28T06:40:32;99715.25;;;13.05;54.64
14383;BME280;7275;50.328;8.720;2023-12-28T06:43:01;99719.56;;;13.08;54.72
14383;BME280;7275;50.328;8.720;2023-12-28T06:45:28;99715.09;;;13.08;54.67
14383;BME280;7275;50.328;8.720;2023-12-28T06:47:56;99726.75;;;13.06;54.91
14383;BME280;7275;50.328;8.720;2023-12-28T06:50:24;99725.38;;;13.16;54.75
14383;BME280;7275;50.328;8.720;2023-12-28T06:52:51;99733.16;;;13.19;54.58
14383;BME280;7275;50.328;8.720;2023-12-28T06:55:19;99746.31;;;13.22;54.85
14383;BME280;7275;50.328;8.720;2023-12-28T06:57:46;99733.66;;;13.27;54.83
14383;BME280;7275;50.328;8.720;2023-12-28T07:00:16;99744.53;;;13.22;55.00
14383;BME280;7275;50.328;8.720;2023-12-28T07:02:44;99749.75;;;13.24;55.23
14383;BME280;7275;50.328;8.720;2023-12-28T07:05:12;99762.88;;;13.27;55.17
14383;BME280;7275;50.328;8.720;2023-12-28T07:07:40;99765.50;;;13.27;55.23
14383;BME280;7275;50.328;8.720;2023-12-28T07:10:08;99759.00;;;13.34;55.09
14383;BME280;7275;50.328;8.720;2023-12-28T07:12:36;99756.25;;;13.35;55.12
14383;BME280;7275;50.328;8.720;2023-12-28T07:15:04;99764.22;;;13.35;55.12
14383;BME280;7275;50.328;8.720;2023-12-28T07:17:33;99766.09;;;13.33;55.54
14383;BME280;7275;50.328;8.720;2023-12-28T07:20:01;99771.41;;;13.33;55.34
14383;BME280;7275;50.328;8.720;2023-12-28T07:22:29;99774.78;;;13.37;55.27
14383;BME280;7275;50.328;8.720;2023-12-28T07:24:57;99777.06;;;13.44;55.05
14383;BME280;7275;50.328;8.720;2023-12-28T07:27:25;99782.31;;;13.46;55.21
14383;BME280;7275;50.328;8.720;2023-12-28T07:29:52;99779.59;;;13.47;55.14
14383;BME280;7275;50.328;8.720;2023-12-28T07:32:20;99783.25;;;13.45;55.29
14383;BME280;7275;50.328;8.720;2023-12-28T07:34:53;99787.56;;;13.47;55.24
14383;BME280;7275;50.328;8.720;2023-12-28T07:37:21;99785.91;;;13.45;55.31
14383;BME280;7275;50.328;8.720;2023-12-28T07:39:48;99772.41;;;13.49;55.12
14383;BME280;7275;50.328;8.720;2023-12-28T07:42:16;99785.75;;;13.48;55.36
14383;BME280;7275;50.328;8.720;2023-12-28T07:44:43;99781.72;;;13.39;55.65
14383;BME280;7275;50.328;8.720;2023-12-28T07:47:12;99787.28;;;13.35;55.61
14383;BME280;7275;50.328;8.720;2023-12-28T07:49:40;99767.84;;;13.34;55.87
14383;BME280;7275;50.328;8.720;2023-12-28T07:52:09;99770.13;;;13.23;56.19
14383;BME280;7275;50.328;8.720;2023-12-28T07:54:37;99768.41;;;13.22;56.28
14383;BME280;7275;50.328;8.720;2023-12-28T07:57:04;99779.91;;;13.03;56.92
14383;BME280;7275;50.328;8.720;2023-12-28T07:59:32;99790.28;;;13.27;56.35
14383;BME280;7275;50.328;8.720;2023-12-28T08:02:00;99785.75;;;13.29;56.05
14383;BME280;7275;50.328;8.720;2023-12-28T08:04:27;99780.78;;;13.03;57.11
14383;BME280;7275;50.328;8.720;2023-12-28T08:06:55;99772.00;;;13.21;56.63
14383;BME280;7275;50.328;8.720;2023-12-28T08:09:24;99766.03;;;13.35;56.06
14383;BME280;7275;50.328;8.720;2023-12-28T08:11:51;99777.94;;;13.45;55.81
14383;BME280;7275;50.328;8.720;2023-12-28T08:14:19;99783.59;;;13.37;56.07
14383;BME280;7275;50.328;8.720;2023-12-28T08:16:46;99774.34;;;13.27;56.62
14383;BME280;7275;50.328;8.720;2023-12-28T08:19:14;99780.38;;;13.31;56.50
14383;BME280;7275;50.328;8.720;2023-12-28T08:21:42;99775.22;;;13.46;56.05
14383;BME280;7275;50.328;8.720;2023-12-28T08:24:09;99773.28;;;13.13;57.21
14383;BME280;7275;50.328;8.720;2023-12-28T08:26:38;99772.28;;;13.34;56.50
14383;BME280;7275;50.328;8.720;2023-12-28T08:29:06;99775.69;;;13.54;55.96
14383;BME280;7275;50.328;8.720;2023-12-28T08:31:33;99783.38;;;13.60;55.80
14383;BME280;7275;50.328;8.720;2023-12-28T08:34:01;99780.88;;;13.57;55.87
14383;BME280;7275;50.328;8.720;2023-12-28T08:36:29;99795.50;;;13.66;55.74
14383;BME280;7275;50.328;8.720;2023-12-28T08:38:56;99792.34;;;13.58;56.06
14383;BME280;7275;50.328;8.720;2023-12-28T08:41:24;99783.16;;;13.65;56.00
14383;BME280;7275;50.328;8.720;2023-12-28T08:43:54;99785.09;;;13.61;55.98
14383;BME280;7275;50.328;8.720;2023-12-28T08:46:22;99790.25;;;13.64;56.05
14383;BME280;7275;50.328;8.720;2023-12-28T08:48:50;99797.00;;;13.72;55.81
14383;BME280;7275;50.328;8.720;2023-12-28T08:51:18;99802.66;;;13.83;55.59
14383;BME280;7275;50.328;8.720;2023-12-28T08:53:47;99793.13;;;13.79;55.74
14383;BME280;7275;50.328;8.720;2023-12-28T08:56:18;99794.44;;;13.87;55.60
14383;BME280;7275;50.328;8.720;2023-12-28T08:58:46;99777.34;;;13.93;55.31
14383;BME280;7275;50.328;8.720;2023-12-28T09:01:19;99782.81;;;13.90;55.58
14383;BME280;7275;50.328;8.720;2023-12-28T09:03:49;99788.59;;;13.98;55.10
14383;BME280;7275;50.328;8.720;2023-12-28T09:06:17;99790.34;;;13.99;55.31
14383;BME280;7275;50.328;8.720;2023-12-28T09:08:47;99811.69;;;13.97;55.27
14383;BME280;7275;50.328;8.720;2023-12-28T09:11:14;99807.84;;;14.03;55.30
14383;BME280;7275;50.328;8.720;2023-12-28T09:13:42;99785.66;;;14.04;55.08
14383;BME280;7275;50.328;8.720;2023-12-28T09:16:11;99798.09;;;14.03;55.21
14383;BME280;7275;50.328;8.720;2023-12-28T09:18:41;99794.09;;;14.12;55.17
14383;BME280;7275;50.328;8.720;2023-12-28T09:21:09;99788.53;;;14.16;54.88
14383;BME280;7275;50.328;8.720;2023-12-28T09:23:38;99799.13;;;14.18;55.05
14383;BME280;7275;50.328;8.720;2023-12-28T09:26:06;99801.03;;;14.14;55.03
14383;BME280;7275;50.328;8.720;2023-12-28T09:28:34;99782.16;;;14.20;54.90
14383;BME280;7275;50.328;8.720;2023-12-28T09:31:03;99785.88;;;14.16;55.02
14383;BME280;7275;50.328;8.720;2023-12-28T09:33:31;99790.13;;;14.20;54.70
14383;BME280;7275;50.328;8.720;2023-12-28T09:36:03;99806.91;;;14.21;54.70
14383;BME280;7275;50.328;8.720;2023-12-28T09:38:30;99808.09;;;14.15;55.02
14383;BME280;7275;50.328;8.720;2023-12-28T09:40:58;99822.09;;;14.19;54.90
14383;BME280;7275;50.328;8.720;2023-12-28T09:43:35;99820.16;;;14.22;54.90
14383;BME280;7275;50.328;8.720;2023-12-28T09:46:06;99818.09;;;14.27;54.77
14383;BME280;7275;50.328;8.720;2023-12-28T09:48:36;99836.44;;;14.33;54.74
14383;BME280;7275;50.328;8.720;2023-12-28T09:51:06;99836.22;;;14.38;54.55
14383;BME280;7275;50.328;8.720;2023-12-28T09:53:37;99833.09;;;14.47;54.33
14383;BME280;7275;50.328;8.720;2023-12-28T09:56:05;99840.13;;;14.48;54.28
14383;BME280;7275;50.328;8.720;2023-12-28T09:58:35;99828.66;;;14.48;54.20
14383;BME280;7275;50.328;8.720;2023-12-28T10:01:03;99830.91;;;14.55;54.04
14383;BME280;7275;50.328;8.720;2023-12-28T10:03:32;99834.13;;;14.62;53.92
14383;BME280;7275;50.328;8.720;2023-12-28T10:06:00;99834.59;;;14.53;54.00
14383;BME280;7275;50.328;8.720;2023-12-28T10:08:29;99839.75;;;14.56;54.13
14383;BME280;7275;50.328;8.720;2023-12-28T10:10:57;99841.22;;;14.61;53.99
14383;BME280;7275;50.328;8.720;2023-12-28T10:13:25;99840.31;;;14.62;54.05
14383;BME280;7275;50.328;8.720;2023-12-28T10:15:56;99832.69;;;14.55;54.27
14383;BME280;7275;50.328;8.720;2023-12-28T10:18:24;99834.66;;;14.51;54.35
14383;BME280;7275;50.328;8.720;2023-12-28T10:20:52;99839.22;;;14.66;54.08
14383;BME280;7275;50.328;8.720;2023-12-28T10:23:20;99845.91;;;14.73;53.89
14383;BME280;7275;50.328;8.720;2023-12-28T10:25:50;99847.47;;;14.77;53.53
14383;BME280;7275;50.328;8.720;2023-12-28T10:28:19;99838.56;;;14.78;53.59
14383;BME280;7275;50.328;8.720;2023-12-28T10:30:47;99830.66;;;14.77;53.58
14383;BME280;7275;50.328;8.720;2023-12-28T10:33:15;99834.47;;;14.88;53.44
14383;BME280;7275;50.328;8.720;2023-12-28T10:35:46;99826.06;;;14.96;53.34
14383;BME280;7275;50.328;8.720;2023-12-28T10:38:16;99835.72;;;14.98;53.18
14383;BME280;7275;50.328;8.720;2023-12-28T10:40:44;99822.31;;;15.00;52.95
14383;BME280;7275;50.328;8.720;2023-12-28T10:43:16;99820.72;;;15.13;52.93
14383;BME280;7275;50.328;8.720;2023-12-28T10:45:46;99826.47;;;15.21;52.26
14383;BME280;7275;50.328;8.720;2023-12-28T10:48:17;99834.41;;;15.23;52.42
14383;BME280;7275;50.328;8.720;2023-12-28T10:50:49;99823.66;;;15.24;52.53
14383;BME280;7275;50.328;8.720;2023-12-28T10:53:30;99819.47;;;15.36;52.23
14383;BME280;7275;50.328;8.720;2023-12-28T10:56:20;99823.88;;;15.37;52.10
14383;BME280;7275;50.328;8.720;2023-12-28T10:58:52;99824.00;;;15.34;52.23
14383;BME280;7275;50.328;8.720;2023-12-28T11:01:22;99819.88;;;15.45;52.26
14383;BME280;7275;50.328;8.720;2023-12-28T11:03:57;99820.31;;;15.53;51.41
14383;BME280;7275;50.328;8.720;2023-12-28T11:06:25;99820.06;;;15.58;51.38
14383;BME280;7275;50.328;8.720;2023-12-28T11:08:54;99811.03;;;15.60;51.26
14383;BME280;7275;50.328;8.720;2023-12-28T11:11:25;99801.91;;;15.64;51.42
14383;BME280;7275;50.328;8.720;2023-12-28T11:13:56;99824.59;;;15.71;50.88
14383;BME280;7275;50.328;8.720;2023-12-28T11:16:24;99805.44;;;15.80;50.88
14383;BME280;7275;50.328;8.720;2023-12-28T11:18:53;99808.75;;;15.99;51.23
14383;BME280;7275;50.328;8.720;2023-12-28T11:21:21;99811.22;;;16.18;50.84
14383;BME280;7275;50.328;8.720;2023-12-28T11:23:50;99805.03;;;16.47;50.54
14383;BME280;7275;50.328;8.720;2023-12-28T11:26:18;99802.16;;;16.94;49.00
14383;BME280;7275;50.328;8.720;2023-12-28T11:28:47;99787.47;;;17.58;48.94
14383;BME280;7275;50.328;8.720;2023-12-28T11:31:17;99780.56;;;17.94;47.80
14383;BME280;7275;50.328;8.720;2023-12-28T11:33:46;99782.53;;;18.05;47.01
14383;BME280;7275;50.328;8.720;2023-12-28T11:36:22;99777.75;;;18.10;46.29
14383;BME280;7275;50.328;8.720;2023-12-28T11:38:52;99790.09;;;17.98;46.12
14383;BME280;7275;50.328;8.720;2023-12-28T11:41:21;99779.22;;;17.75;46.13
14383;BME280;7275;50.328;8.720;2023-12-28T11:43:51;99773.00;;;17.74;46.78
14383;BME280;7275;50.328;8.720;2023-12-28T11:46:21;99769.94;;;17.80;46.48
14383;BME280;7275;50.328;8.720;2023-12-28T11:48:49;99776.28;;;17.65;46.36
14383;BME280;7275;50.328;8.720;2023-12-28T11:51:17;99763.41;;;17.58;46.27
14383;BME280;7275;50.328;8.720;2023-12-28T11:53:45;99768.66;;;17.59;46.81
14383;BME280;7275;50.328;8.720;2023-12-28T11:56:15;99752.56;;;17.73;46.34
14383;BME280;7275;50.328;8.720;2023-12-28T11:58:43;99757.78;;;17.62;46.23
14383;BME280;7275;50.328;8.720;2023-12-28T12:01:13;99744.75;;;17.70;46.01
14383;BME280;7275;50.328;8.720;2023-12-28T12:03:42;99738.63;;;17.95;45.66
14383;BME280;7275;50.328;8.720;2023-12-28T12:06:10;99726.50;;;18.16;44.98
14383;BME280;7275;50.328;8.720;2023-12-28T12:08:37;99718.88;;;18.10;43.79
14383;BME280;7275;50.328;8.720;2023-12-28T12:11:05;99716.13;;;18.24;44.50
14383;BME280;7275;50.328;8.720;2023-12-28T12:13:33;99715.56;;;18.46;44.36
14383;BME280;7275;50.328;8.720;2023-12-28T12:16:02;99723.53;;;18.33;43.41
14383;BME280;7275;50.328;8.720;2023-12-28T12:18:33;99724.28;;;18.35;43.96
14383;BME280;7275;50.328;8.720;2023-12-28T12:21:03;99718.63;;;18.40;43.94
14383;BME280;7275;50.328;8.720;2023-12-28T12:23:32;99716.88;;;18.38;43.76
14383;BME280;7275;50.328;8.720;2023-12-28T12:26:00;99719.88;;;18.34;43.87
14383;BME280;7275;50.328;8.720;2023-12-28T12:28:29;99708.59;;;18.68;43.94
14383;BME280;7275;50.328;8.720;2023-12-28T12:30:56;99701.63;;;19.27;43.17
14383;BME280;7275;50.328;8.720;2023-12-28T12:33:25;99685.69;;;19.97;42.40
14383;BME280;7275;50.328;8.720;2023-12-28T12:35:54;99673.44;;;20.62;41.22
14383;BME280;7275;50.328;8.720;2023-12-28T12:38:23;99675.66;;;21.23;38.87
14383;BME280;7275;50.328;8.720;2023-12-28T12:40:51;99675.38;;;21.37;39.00
14383;BME280;7275;50.328;8.720;2023-12-28T12:43:19;99682.97;;;21.21;37.45
14383;BME280;7275;50.328;8.720;2023-12-28T12:45:46;99680.25;;;20.99;37.38
14383;BME280;7275;50.328;8.720;2023-12-28T12:48:15;99672.47;;;21.07;37.59
14383;BME280;7275;50.328;8.720;2023-12-28T12:50:43;99674.16;;;20.97;36.17
14383;BME280;7275;50.328;8.720;2023-12-28T12:53:11;99666.50;;;21.15;37.20
14383;BME280;7275;50.328;8.720;2023-12-28T12:55:40;99666.94;;;21.42;37.21
14383;BME280;7275;50.328;8.720;2023-12-28T12:58:09;99655.44;;;21.83;37.46
14383;BME280;7275;50.328;8.720;2023-12-28T13:00:39;99658.34;;;22.11;36.41
14383;BME280;7275;50.328;8.720;2023-12-28T13:03:07;99668.88;;;22.14;34.93
14383;BME280;7275;50.328;8.720;2023-12-28T13:05:35;99648.38;;;22.02;35.18
14383;BME280;7275;50.328;8.720;2023-12-28T13:08:04;99654.81;;;22.11;35.59
14383;BME280;7275;50.328;8.720;2023-12-28T13:10:32;99644.66;;;22.24;34.63
14383;BME280;7275;50.328;8.720;2023-12-28T13:13:00;99648.88;;;22.38;35.01
14383;BME280;7275;50.328;8.720;2023-12-28T13:15:29;99646.00;;;22.30;33.73